logo
Rechercher aéroport 
image banner adimage banner adimage banner ad
image banner ad

LZRU - Ruzomberok

Situé à Ruzomberok, Slovakia

ICAO - , IATA -

Données fournies par Airmate  

Information générale

Coordonnées: N49°5'8" E19°22'7"
Élévation : 1615 feet MSL.
Variation magnétique : 5.43° East
Évalué:
Voir évaluations:
[VIEW]
Voir autres Aéroports à Žilina

Données opérationnelles

Special qualification required
Heure actuelle UTC:
Heure actuelle locale:
Météo à : LZSL - Sliac ( 53 km )
TAF: TAF LZSL 221930Z 2221/2306 VRB02KT 9999 SCT050 PROB40 TEMPO 2302/2306 0400 FG BKN002
Voir NOTAMs / SUP AIP / TFR affectant cet aéroport [VIEW]
Fréquences de communication: [VIEW]

Pistes:

Identifiant RWYQFULongueur (ft)Largeur (ft)SurfaceLDA (ft)
06L3084131GRASS
24R3084131GRASS
06R3084131GRASS
24L3084131GRASS

Coordonnées de l'aéroport

Adresse: Ruzomberok Slovakia

Vue satellite de LZRU